Time;durP1;ratioP1;P1;durP2;ratioP2;P2;SDS_P1;SDS_P2;PMS_P1;PMS_P2;Temp;Humidity;BMP_temperature;BMP_pressure;BME280_temperature;BME280_humidity;BME280_pressure;Samples;Min_cycle;Max_cycle;Signal;HPM_P1;HPM_P2
2024/02/14 00:00:13;;;;;;;74.30;49.20;;;;;;;7.97;100.00;100401.39;106116;1254;73035;-82
2024/02/14 00:02:41;;;;;;;73.90;49.90;;;;;;;7.95;100.00;100399.73;105942;1251;62534;-84
2024/02/14 00:05:10;;;;;;;74.10;49.00;;;;;;;7.93;100.00;100401.73;105899;1256;72459;-84
2024/02/14 00:07:40;;;;;;;83.00;48.50;;;;;;;7.91;100.00;100400.28;106208;1251;61036;-84
2024/02/14 00:10:07;;;;;;;74.30;47.00;;;;;;;7.91;100.00;100402.04;106345;1253;60315;-83
2024/02/14 00:12:35;;;;;;;68.10;45.00;;;;;;;7.91;100.00;100395.40;106334;1251;72880;-81
2024/02/14 00:15:08;;;;;;;79.00;52.70;;;;;;;7.93;100.00;100390.27;106441;1253;62201;-83
2024/02/14 00:17:35;;;;;;;74.30;48.90;;;;;;;7.95;100.00;100388.23;106166;1253;72746;-81
2024/02/14 00:20:03;;;;;;;69.50;48.90;;;;;;;7.92;100.00;100397.08;106155;1250;59617;-82
2024/02/14 00:22:31;;;;;;;69.70;48.10;;;;;;;7.83;100.00;100401.39;106290;1251;59973;-83
2024/02/14 00:24:58;;;;;;;85.90;56.80;;;;;;;7.74;100.00;100403.26;106268;1251;73538;-81
2024/02/14 00:27:26;;;;;;;106.20;67.70;;;;;;;7.65;100.00;100398.81;106167;1254;63794;-81
2024/02/14 00:29:54;;;;;;;92.60;56.90;;;;;;;7.60;100.00;100398.24;106139;1253;72713;-83
2024/02/14 00:32:21;;;;;;;85.10;56.10;;;;;;;7.53;100.00;100395.12;106164;1253;60999;-81
2024/02/14 00:34:49;;;;;;;93.20;60.70;;;;;;;7.45;100.00;100392.20;106121;1253;59711;-82
2024/02/14 00:37:16;;;;;;;91.70;60.30;;;;;;;7.38;100.00;100395.14;106147;1254;73007;-82
2024/02/14 00:39:44;;;;;;;88.10;61.20;;;;;;;7.33;100.00;100394.20;106110;1254;63786;-80
2024/02/14 00:42:10;;;;;;;93.80;59.30;;;;;;;7.29;100.00;100394.23;106026;1254;72620;-82
2024/02/14 00:44:38;;;;;;;92.50;60.20;;;;;;;7.24;100.00;100395.52;106170;1253;61131;-80
2024/02/14 00:47:05;;;;;;;89.70;60.20;;;;;;;7.17;100.00;100396.91;106092;1251;60504;-81
2024/02/14 00:49:34;;;;;;;91.20;61.50;;;;;;;7.10;100.00;100394.81;106044;1251;74032;-82
2024/02/14 00:52:02;;;;;;;94.80;62.30;;;;;;;7.04;100.00;100397.86;106329;1251;63785;-81
2024/02/14 00:54:31;;;;;;;93.40;62.10;;;;;;;7.00;100.00;100400.17;106104;1250;72572;-82
2024/02/14 00:56:58;;;;;;;92.80;61.30;;;;;;;6.96;100.00;100403.15;106197;1254;60555;-82
2024/02/14 00:59:25;;;;;;;97.50;64.80;;;;;;;6.91;100.00;100413.67;106133;1251;60338;-82
2024/02/14 01:01:52;;;;;;;96.90;63.70;;;;;;;6.82;100.00;100414.27;106142;1254;72759;-80
2024/02/14 01:04:18;;;;;;;94.60;63.10;;;;;;;6.72;100.00;100412.10;106139;1251;63899;-81
2024/02/14 01:06:49;;;;;;;91.00;62.10;;;;;;;6.67;100.00;100416.52;106075;1253;71694;-83
2024/02/14 01:09:17;;;;;;;103.70;64.10;;;;;;;6.63;100.00;100412.16;105843;1251;61031;-82
2024/02/14 01:11:44;;;;;;;90.60;62.20;;;;;;;6.63;100.00;100413.89;106060;1251;60421;-80
2024/02/14 01:14:14;;;;;;;93.70;63.80;;;;;;;6.64;100.00;100415.60;106245;1251;73912;-82
2024/02/14 01:16:44;;;;;;;94.70;61.50;;;;;;;6.64;100.00;100416.31;106374;1249;63806;-82
2024/02/14 01:19:12;;;;;;;91.80;61.00;;;;;;;6.64;100.00;100413.84;106544;1251;71704;-81
2024/02/14 01:21:39;;;;;;;91.30;63.40;;;;;;;6.64;100.00;100416.81;107176;1251;60347;-78
2024/02/14 01:24:08;;;;;;;99.00;62.10;;;;;;;6.64;100.00;100420.30;107972;1251;60430;-84
2024/02/14 01:26:36;;;;;;;98.20;60.90;;;;;;;6.63;100.00;100421.55;106127;1250;73846;-83
2024/02/14 01:29:05;;;;;;;92.40;60.20;;;;;;;6.63;100.00;100424.17;106085;1254;63831;-83
2024/02/14 01:31:34;;;;;;;91.40;60.00;;;;;;;6.63;100.00;100420.36;106151;1251;72499;-82
2024/02/14 01:34:01;;;;;;;84.00;57.00;;;;;;;6.65;100.00;100420.59;106169;1253;60338;-81
2024/02/14 01:36:29;;;;;;;82.50;56.40;;;;;;;6.67;100.00;100416.38;106133;1250;60539;-82
2024/02/14 01:38:56;;;;;;;86.60;58.10;;;;;;;6.65;100.00;100412.60;106186;1253;73733;-81
2024/02/14 01:41:23;;;;;;;85.90;57.40;;;;;;;6.65;100.00;100414.20;106152;1251;62358;-81
2024/02/14 01:43:50;;;;;;;86.80;58.30;;;;;;;6.66;100.00;100419.89;106419;1251;72558;-79
2024/02/14 01:46:18;;;;;;;97.50;60.90;;;;;;;6.68;100.00;100423.58;107265;1251;60830;-79
2024/02/14 01:48:46;;;;;;;89.00;58.10;;;;;;;6.69;100.00;100425.30;107704;1253;60403;-81
2024/02/14 01:51:13;;;;;;;91.30;60.60;;;;;;;6.64;100.00;100426.56;107467;1251;72363;-80
2024/02/14 01:53:40;;;;;;;96.30;63.00;;;;;;;6.58;100.00;100430.31;107442;1251;62358;-80
2024/02/14 01:56:06;;;;;;;93.60;62.10;;;;;;;6.53;100.00;100431.07;107616;1253;71953;-79
2024/02/14 01:58:34;;;;;;;99.90;65.50;;;;;;;6.48;100.00;100433.90;108634;1249;62050;-79
2024/02/14 02:01:01;;;;;;;94.00;63.40;;;;;;;6.48;100.00;100439.14;109406;1249;58936;-79
2024/02/14 02:03:29;;;;;;;92.60;61.90;;;;;;;6.48;100.00;100439.61;109231;1251;72355;-80
2024/02/14 02:05:58;;;;;;;86.90;60.20;;;;;;;6.50;100.00;100443.21;109560;1250;63957;-81
2024/02/14 02:08:24;;;;;;;83.30;59.60;;;;;;;6.52;100.00;100442.41;109734;1251;71252;-80
2024/02/14 02:10:51;;;;;;;89.50;58.80;;;;;;;6.53;100.00;100443.90;109722;1250;59602;-81
2024/02/14 02:13:20;;;;;;;92.20;61.20;;;;;;;6.54;100.00;100445.45;109544;1251;59263;-81
2024/02/14 02:15:47;;;;;;;94.40;60.60;;;;;;;6.55;100.00;100447.48;108994;1251;74067;-81
2024/02/14 02:18:15;;;;;;;89.30;59.20;;;;;;;6.55;100.00;100449.39;108035;1251;64359;-80
2024/02/14 02:20:43;;;;;;;85.40;58.00;;;;;;;6.56;100.00;100448.67;107624;1252;71118;-80
2024/02/14 02:23:15;;;;;;;86.10;57.50;;;;;;;6.56;100.00;100451.08;107778;1251;60466;-82
2024/02/14 02:25:44;;;;;;;80.10;54.50;;;;;;;6.57;100.00;100452.26;107914;1249;60549;-82
2024/02/14 02:28:11;;;;;;;80.80;54.30;;;;;;;6.56;100.00;100456.30;108275;1250;72757;-82
2024/02/14 02:30:38;;;;;;;83.50;56.00;;;;;;;6.56;100.00;100460.27;108121;1250;62730;-81
2024/02/14 02:33:07;;;;;;;79.90;56.40;;;;;;;6.59;100.00;100462.05;108359;1251;72653;-81
2024/02/14 02:35:34;;;;;;;76.50;52.80;;;;;;;6.61;100.00;100465.95;106909;1250;60526;-78
2024/02/14 02:38:02;;;;;;;79.00;52.40;;;;;;;6.63;100.00;100469.01;106422;1251;60481;-83
2024/02/14 02:40:29;;;;;;;81.70;52.60;;;;;;;6.62;100.00;100467.27;106292;1254;73749;-82
2024/02/14 02:42:56;;;;;;;77.10;51.40;;;;;;;6.62;100.00;100467.66;106706;1251;63758;-80
2024/02/14 02:45:23;;;;;;;84.20;56.00;;;;;;;6.63;100.00;100471.96;106282;1251;72574;-82
2024/02/14 02:47:52;;;;;;;73.50;52.90;;;;;;;6.63;100.00;100470.54;106156;1251;60495;-81
2024/02/14 02:50:21;;;;;;;82.10;54.80;;;;;;;6.66;100.00;100475.13;106262;1250;60515;-81
2024/02/14 02:52:49;;;;;;;86.80;53.80;;;;;;;6.64;100.00;100481.83;107015;1250;73831;-83
2024/02/14 02:55:17;;;;;;;80.50;53.70;;;;;;;6.60;100.00;100481.45;106946;1254;63642;-82
2024/02/14 02:57:45;;;;;;;78.80;51.80;;;;;;;6.54;100.00;100485.55;106292;1254;71248;-82
2024/02/14 03:00:12;;;;;;;78.30;53.60;;;;;;;6.50;100.00;100484.70;106112;1253;61687;-83
2024/02/14 03:02:44;;;;;;;80.10;52.10;;;;;;;6.47;100.00;100484.66;106210;1251;60389;-83
2024/02/14 03:05:17;;;;;;;80.30;55.10;;;;;;;6.44;100.00;100482.16;106067;1252;73823;-82
2024/02/14 03:07:45;;;;;;;77.90;52.50;;;;;;;6.41;100.00;100481.48;106152;1253;63582;-81
2024/02/14 03:10:13;;;;;;;77.20;54.40;;;;;;;6.36;100.00;100482.71;106135;1254;72579;-78
2024/02/14 03:12:42;;;;;;;80.80;54.20;;;;;;;6.33;100.00;100479.89;106182;1251;61177;-83
2024/02/14 03:15:10;;;;;;;79.80;54.30;;;;;;;6.32;100.00;100488.64;106097;1250;60884;-81
2024/02/14 03:17:38;;;;;;;74.80;52.70;;;;;;;6.26;100.00;100493.42;106162;1249;73859;-81
2024/02/14 03:20:15;;;;;;;79.90;56.20;;;;;;;6.20;100.00;100489.48;106175;1253;62487;-81
2024/02/14 03:22:46;;;;;;;85.10;55.90;;;;;;;6.16;100.00;100489.52;106164;1253;71269;-82
2024/02/14 03:25:16;;;;;;;81.10;54.40;;;;;;;6.12;100.00;100490.18;105849;1256;60447;-82
2024/02/14 03:27:47;;;;;;;78.40;56.20;;;;;;;6.08;100.00;100494.88;106227;1249;60539;-79
2024/02/14 03:30:16;;;;;;;81.60;56.30;;;;;;;6.03;100.00;100495.30;106176;1251;73731;-82
2024/02/14 03:32:43;;;;;;;89.40;57.80;;;;;;;5.98;100.00;100496.00;106010;1256;63761;-83
2024/02/14 03:35:15;;;;;;;89.70;58.90;;;;;;;5.94;100.00;100496.34;106237;1251;72715;-82
2024/02/14 03:37:42;;;;;;;90.70;55.50;;;;;;;5.90;100.00;100496.30;106281;1254;61060;-83
2024/02/14 03:40:09;;;;;;;81.10;54.40;;;;;;;5.87;100.00;100490.20;106382;1251;60539;-82
2024/02/14 03:42:39;;;;;;;90.00;56.10;;;;;;;5.81;100.00;100494.25;106470;1251;73761;-82
2024/02/14 03:45:07;;;;;;;84.40;57.50;;;;;;;5.75;100.00;100491.73;106363;1253;63617;-82
2024/02/14 03:47:35;;;;;;;82.50;56.80;;;;;;;5.72;100.00;100495.86;106452;1254;72496;-83
2024/02/14 03:50:04;;;;;;;82.40;57.60;;;;;;;5.71;100.00;100497.28;106546;1254;60980;-86
2024/02/14 03:52:34;;;;;;;84.00;55.50;;;;;;;5.68;100.00;100497.75;106397;1250;60417;-81
2024/02/14 03:55:02;;;;;;;90.90;62.70;;;;;;;5.65;100.00;100503.42;106448;1250;73889;-82
2024/02/14 03:57:29;;;;;;;78.50;57.20;;;;;;;5.63;100.00;100503.55;106485;1253;63810;-82
2024/02/14 04:00:01;;;;;;;77.30;52.00;;;;;;;5.61;100.00;100507.77;107559;1249;71262;-82
2024/02/14 04:02:37;;;;;;;82.30;53.60;;;;;;;5.59;100.00;100508.53;109516;1250;60399;-81
2024/02/14 04:05:09;;;;;;;83.80;57.60;;;;;;;5.54;100.00;100507.85;107032;1251;60448;-82
2024/02/14 04:07:37;;;;;;;81.20;54.60;;;;;;;5.48;100.00;100502.41;107411;1249;74223;-82
2024/02/14 04:10:05;;;;;;;84.30;57.20;;;;;;;5.47;100.00;100508.16;108950;1253;62515;-83
2024/02/14 04:12:33;;;;;;;80.10;55.90;;;;;;;5.44;100.00;100506.55;108347;1249;72696;-80
2024/02/14 04:15:00;;;;;;;80.80;55.50;;;;;;;5.44;100.00;100514.71;109686;1251;61230;-81
2024/02/14 04:17:27;;;;;;;68.50;49.10;;;;;;;5.43;100.00;100515.59;109767;1251;60163;-81
2024/02/14 04:19:55;;;;;;;71.50;49.70;;;;;;;5.44;100.00;100519.75;109820;1249;72331;-81
2024/02/14 04:22:21;;;;;;;84.20;57.40;;;;;;;5.42;100.00;100517.05;109816;1249;61898;-81
2024/02/14 04:24:48;;;;;;;92.90;64.10;;;;;;;5.39;100.00;100516.09;109718;1249;71363;-81
2024/02/14 04:27:15;;;;;;;77.10;54.90;;;;;;;5.39;100.00;100514.54;109811;1250;59872;-81
2024/02/14 04:29:46;;;;;;;78.70;55.80;;;;;;;5.41;100.00;100517.23;108331;1249;59233;-82
2024/02/14 04:32:14;;;;;;;74.40;51.40;;;;;;;5.42;100.00;100516.17;107141;1251;73711;-81
2024/02/14 04:34:41;;;;;;;68.90;50.30;;;;;;;5.41;100.00;100518.13;106778;1251;61331;-82
2024/02/14 04:37:13;;;;;;;76.70;51.00;;;;;;;5.40;100.00;100518.83;106247;1254;71328;-83
2024/02/14 04:39:40;;;;;;;75.80;52.70;;;;;;;5.39;100.00;100521.80;106589;1253;61014;-80
2024/02/14 04:42:07;;;;;;;81.60;53.90;;;;;;;5.38;100.00;100527.92;106667;1251;60463;-81
2024/02/14 04:44:36;;;;;;;82.50;53.50;;;;;;;5.37;100.00;100531.29;106799;1253;74047;-81
2024/02/14 04:47:03;;;;;;;76.20;51.70;;;;;;;5.33;100.00;100532.80;106709;1253;62870;-80
2024/02/14 04:49:35;;;;;;;77.80;50.30;;;;;;;5.31;100.00;100537.92;109940;1250;73147;-82
2024/02/14 04:52:04;;;;;;;76.70;49.10;;;;;;;5.29;100.00;100541.13;109853;1250;59706;-81
2024/02/14 04:54:31;;;;;;;72.50;52.10;;;;;;;5.26;100.00;100541.75;109927;1249;58984;-80
2024/02/14 04:56:58;;;;;;;70.80;47.60;;;;;;;5.24;100.00;100546.17;109967;1250;73930;-83
2024/02/14 04:59:30;;;;;;;81.70;52.40;;;;;;;5.25;100.00;100547.70;109922;1249;62625;-81
2024/02/14 05:01:57;;;;;;;76.20;49.40;;;;;;;5.27;100.00;100546.41;109906;1249;72561;-82
2024/02/14 05:04:25;;;;;;;78.50;49.40;;;;;;;5.29;100.00;100555.00;109898;1249;60964;-83
2024/02/14 05:06:52;;;;;;;72.60;46.30;;;;;;;5.29;100.00;100555.85;109933;1250;58822;-82
2024/02/14 05:09:25;;;;;;;75.30;46.10;;;;;;;5.31;100.00;100557.15;109932;1250;74301;-82
2024/02/14 05:11:52;;;;;;;74.10;46.50;;;;;;;5.33;100.00;100556.73;109948;1250;63606;-83
2024/02/14 05:14:19;;;;;;;64.30;43.30;;;;;;;5.37;100.00;100557.61;109880;1250;72859;-82
2024/02/14 05:16:47;;;;;;;68.40;46.80;;;;;;;5.40;100.00;100562.54;109899;1250;60837;-83
2024/02/14 05:19:14;;;;;;;66.50;45.70;;;;;;;5.43;100.00;100566.77;109925;1250;58202;-82
2024/02/14 05:21:41;;;;;;;57.20;38.30;;;;;;;5.45;100.00;100568.07;109935;1250;73901;-82
2024/02/14 05:24:08;;;;;;;65.60;41.10;;;;;;;5.47;100.00;100572.48;109962;1249;62517;-82
2024/02/14 05:26:35;;;;;;;62.80;40.10;;;;;;;5.49;100.00;100571.89;109914;1250;72702;-82
2024/02/14 05:29:02;;;;;;;63.60;41.30;;;;;;;5.50;100.00;100573.05;109897;1251;59811;-82
2024/02/14 05:31:42;;;;;;;59.60;37.30;;;;;;;5.53;100.00;100576.08;109943;1250;60373;-85
2024/02/14 05:34:10;;;;;;;63.60;39.90;;;;;;;5.56;100.00;100575.60;109913;1250;73875;-82
2024/02/14 05:36:37;;;;;;;62.80;42.60;;;;;;;5.57;100.00;100572.45;109802;1249;62233;-83
2024/02/14 05:39:05;;;;;;;71.20;45.00;;;;;;;5.59;100.00;100572.88;109723;1250;71373;-82
2024/02/14 05:41:32;;;;;;;73.00;47.60;;;;;;;5.64;100.00;100579.45;109809;1249;60287;-82
2024/02/14 05:44:00;;;;;;;65.10;42.20;;;;;;;5.70;100.00;100584.06;109919;1250;58958;-82
2024/02/14 05:46:27;;;;;;;65.30;42.30;;;;;;;5.75;100.00;100586.79;109914;1250;73660;-82
2024/02/14 05:48:57;;;;;;;83.10;54.00;;;;;;;5.80;100.00;100578.11;109911;1250;62452;-83
2024/02/14 05:51:24;;;;;;;79.90;51.10;;;;;;;5.81;100.00;100573.02;109704;1249;72683;-82
2024/02/14 05:53:51;;;;;;;78.30;51.70;;;;;;;5.84;100.00;100575.52;109874;1250;59678;-84
2024/02/14 05:56:18;;;;;;;82.00;52.00;;;;;;;5.91;100.00;100582.17;109964;1249;60269;-82
2024/02/14 05:58:45;;;;;;;59.40;41.10;;;;;;;6.00;100.00;100584.59;109914;1250;73814;-83
2024/02/14 06:01:13;;;;;;;59.60;39.90;;;;;;;6.08;100.00;100592.42;109934;1250;62424;-83
2024/02/14 06:03:43;;;;;;;62.90;41.00;;;;;;;6.14;100.00;100594.79;109916;1249;71802;-83
2024/02/14 06:06:10;;;;;;;77.80;47.30;;;;;;;6.19;100.00;100601.67;109850;1250;60253;-81
2024/02/14 06:08:36;;;;;;;74.40;50.10;;;;;;;6.27;100.00;100596.66;109931;1250;60154;-84
2024/02/14 06:11:03;;;;;;;73.80;49.50;;;;;;;6.37;100.00;100592.91;109917;1249;72179;-83
2024/02/14 06:13:30;;;;;;;74.70;48.40;;;;;;;6.46;100.00;100593.06;109907;1250;63826;-83
2024/02/14 06:16:01;;;;;;;77.00;51.20;;;;;;;6.56;100.00;100594.02;109896;1250;72412;-84
2024/02/14 06:18:28;;;;;;;77.00;49.50;;;;;;;6.67;100.00;100602.04;109470;1250;61221;-84
2024/02/14 06:20:55;;;;;;;74.70;48.50;;;;;;;6.79;100.00;100603.23;109724;1249;58209;-83
2024/02/14 06:23:22;;;;;;;79.50;52.50;;;;;;;6.94;100.00;100606.27;109900;1249;73582;-82
2024/02/14 06:25:49;;;;;;;75.90;53.70;;;;;;;7.10;100.00;100608.66;109740;1251;63561;-82
2024/02/14 06:28:16;;;;;;;76.70;51.80;;;;;;;7.26;100.00;100607.73;109924;1249;72912;-82
2024/02/14 06:30:43;;;;;;;76.60;52.60;;;;;;;7.50;100.00;100606.77;109877;1249;61086;-83
2024/02/14 06:33:10;;;;;;;72.00;49.00;;;;;;;7.73;100.00;100608.98;109941;1250;59501;-83
2024/02/14 06:35:38;;;;;;;74.50;51.80;;;;;;;7.89;100.00;100610.14;109885;1249;73892;-82
2024/02/14 06:38:06;;;;;;;77.50;55.20;;;;;;;8.01;100.00;100613.37;109902;1251;63693;-81
2024/02/14 06:40:33;;;;;;;83.10;58.00;;;;;;;8.09;100.00;100613.15;109948;1249;71520;-83
2024/02/14 06:43:00;;;;;;;86.30;58.10;;;;;;;8.15;100.00;100615.49;109852;1249;61188;-83
2024/02/14 06:45:29;;;;;;;81.20;58.60;;;;;;;8.19;100.00;100619.77;110045;1250;60142;-84
2024/02/14 06:47:59;;;;;;;82.00;57.70;;;;;;;8.23;100.00;100623.75;109967;1253;71605;-84
2024/02/14 06:50:26;;;;;;;82.20;58.10;;;;;;;8.25;100.00;100626.83;109896;1249;62102;-83
2024/02/14 06:52:53;;;;;;;87.10;62.30;;;;;;;8.22;100.00;100627.45;109863;1249;70736;-83
2024/02/14 06:55:21;;;;;;;84.00;61.50;;;;;;;8.19;100.00;100622.55;109753;1250;61267;-81
2024/02/14 06:57:48;;;;;;;82.50;59.80;;;;;;;8.19;100.00;100620.85;109939;1250;58829;-84
2024/02/14 07:00:15;;;;;;;86.30;60.40;;;;;;;8.20;100.00;100625.12;109742;1250;72552;-85
2024/02/14 07:02:43;;;;;;;78.40;55.30;;;;;;;8.26;100.00;100628.30;109971;1250;62785;-84
2024/02/14 07:05:12;;;;;;;77.90;53.90;;;;;;;8.34;100.00;100623.76;109775;1250;71727;-85
2024/02/14 07:07:40;;;;;;;75.20;56.10;;;;;;;8.41;100.00;100621.15;109888;1250;59863;-81
2024/02/14 07:10:07;;;;;;;81.30;56.30;;;;;;;8.44;100.00;100624.48;109953;1249;58924;-80
2024/02/14 07:12:36;;;;;;;80.10;55.00;;;;;;;8.48;100.00;100622.51;109960;1249;73662;-81
2024/02/14 07:15:05;;;;;;;81.10;56.40;;;;;;;8.56;100.00;100613.77;109939;1249;62302;-83
2024/02/14 07:17:32;;;;;;;84.30;58.40;;;;;;;8.66;100.00;100613.08;109862;1250;72621;-87
2024/02/14 07:20:01;;;;;;;86.50;57.70;;;;;;;8.79;100.00;100616.95;109885;1249;60502;-84
2024/02/14 07:22:30;;;;;;;81.70;56.80;;;;;;;8.92;100.00;100620.94;109958;1249;60281;-82
2024/02/14 07:24:57;;;;;;;73.20;51.70;;;;;;;9.06;100.00;100620.55;109944;1249;73656;-84
2024/02/14 07:27:24;;;;;;;70.60;53.40;;;;;;;9.16;100.00;100617.41;109946;1249;63698;-84
2024/02/14 07:29:51;;;;;;;76.20;53.40;;;;;;;9.25;100.00;100618.86;109885;1250;71048;-83
2024/02/14 07:32:17;;;;;;;70.80;52.40;;;;;;;9.34;100.00;100616.44;109892;1250;61902;-83
2024/02/14 07:34:46;;;;;;;73.30;50.80;;;;;;;9.46;100.00;100613.30;109977;1250;58713;-83
2024/02/14 07:37:16;;;;;;;76.00;53.00;;;;;;;9.59;100.00;100613.28;109966;1250;73842;-84
2024/02/14 07:39:44;;;;;;;68.30;48.60;;;;;;;9.71;100.00;100611.06;109912;1250;62824;-82
2024/02/14 07:42:11;;;;;;;68.30;48.40;;;;;;;9.85;100.00;100607.81;109944;1249;71446;-82
2024/02/14 07:44:38;;;;;;;69.90;48.40;;;;;;;9.99;100.00;100609.94;109899;1249;62012;-82
2024/02/14 07:47:06;;;;;;;63.30;49.30;;;;;;;10.15;100.00;100609.73;109918;1251;60078;-82
2024/02/14 07:49:34;;;;;;;63.70;47.40;;;;;;;10.31;100.00;100614.43;109881;1249;73845;-83
2024/02/14 07:52:02;;;;;;;66.40;47.40;;;;;;;10.44;100.00;100614.34;109918;1249;63172;-83
2024/02/14 07:54:29;;;;;;;72.90;47.70;;;;;;;10.58;100.00;100614.92;109859;1249;72674;-86
2024/02/14 07:56:56;;;;;;;66.20;47.20;;;;;;;10.72;100.00;100618.29;109839;1250;62409;-83
2024/02/14 07:59:23;;;;;;;68.60;46.50;;;;;;;10.80;100.00;100621.13;109964;1250;60266;-82
2024/02/14 08:01:50;;;;;;;60.90;45.70;;;;;;;10.85;100.00;100624.85;109931;1250;73887;-84
2024/02/14 08:04:18;;;;;;;68.70;47.20;;;;;;;10.97;100.00;100626.21;109931;1249;62233;-83
2024/02/14 08:06:46;;;;;;;64.20;44.60;;;;;;;11.12;100.00;100622.64;109885;1250;71673;-83
2024/02/14 08:09:13;;;;;;;62.50;45.80;;;;;;;11.30;100.00;100626.10;109891;1250;60388;-83
2024/02/14 08:11:40;;;;;;;63.40;47.50;;;;;;;11.45;100.00;100629.31;109916;1249;60487;-84
2024/02/14 08:14:07;;;;;;;61.00;41.60;;;;;;;11.58;100.00;100635.33;109726;1250;73897;-83
2024/02/14 08:16:35;;;;;;;58.70;43.30;;;;;;;11.64;100.00;100639.69;109896;1249;63037;-82
2024/02/14 08:19:02;;;;;;;64.60;44.50;;;;;;;11.68;100.00;100636.42;109906;1249;72440;-83
2024/02/14 08:21:30;;;;;;;68.20;46.20;;;;;;;11.75;100.00;100640.67;109862;1250;62463;-82
2024/02/14 08:23:59;;;;;;;66.20;46.70;;;;;;;11.87;100.00;100639.96;109936;1250;60022;-81
2024/02/14 08:26:28;;;;;;;64.20;42.10;;;;;;;11.99;100.00;100637.05;109715;1249;72622;-82
2024/02/14 08:28:55;;;;;;;56.70;42.30;;;;;;;12.11;100.00;100639.46;109952;1250;63558;-83
2024/02/14 08:31:22;;;;;;;59.00;42.50;;;;;;;12.21;100.00;100642.31;109916;1249;72889;-82
2024/02/14 08:33:48;;;;;;;62.20;39.90;;;;;;;12.26;100.00;100642.84;109886;1249;60873;-82
2024/02/14 08:36:16;;;;;;;51.70;39.60;;;;;;;12.32;100.00;100645.96;109961;1250;60381;-82
2024/02/14 08:38:45;;;;;;;52.00;36.80;;;;;;;12.41;100.00;100649.39;109736;1255;74017;-83
2024/02/14 08:41:12;;;;;;;54.40;39.40;;;;;;;12.52;100.00;100652.35;109901;1250;62805;-82
2024/02/14 08:43:39;;;;;;;48.20;37.00;;;;;;;12.63;100.00;100655.64;109892;1250;72709;-83
2024/02/14 08:46:16;;;;;;;55.50;40.10;;;;;;;12.77;100.00;100658.19;109848;1250;60726;-82
2024/02/14 08:51:26;;;;;;;52.10;36.10;;;;;;;13.13;100.00;100662.39;102705;1291;601354;-82
2024/02/14 08:53:55;;;;;;;49.50;38.70;;;;;;;13.32;100.00;100668.06;104962;1271;64265;-82
2024/02/14 08:56:23;;;;;;;48.80;36.20;;;;;;;13.61;100.00;100667.78;105005;1265;60073;-84
2024/02/14 08:58:50;;;;;;;44.50;33.20;;;;;;;13.99;100.00;100666.42;104799;1273;70723;-85
2024/02/14 09:01:20;;;;;;;46.10;33.30;;;;;;;14.43;100.00;100669.99;104991;1266;64636;-85
2024/02/14 09:03:48;;;;;;;43.40;34.60;;;;;;;14.88;100.00;100672.20;105306;1263;72494;-83
2024/02/14 09:06:20;;;;;;;45.80;33.50;;;;;;;15.43;100.00;100678.29;105351;1262;257554;-84
2024/02/14 09:08:50;;;;;;;40.10;31.50;;;;;;;16.03;100.00;100682.73;105538;1257;62132;-86
2024/02/14 09:11:18;;;;;;;39.00;29.60;;;;;;;16.55;100.00;100684.52;105570;1258;72058;-83
2024/02/14 09:13:49;;;;;;;37.20;27.80;;;;;;;16.97;100.00;100682.77;105488;1263;63788;-85
2024/02/14 09:16:16;;;;;;;40.50;29.00;;;;;;;17.35;100.00;100678.62;105827;1258;74196;-84
2024/02/14 09:18:47;;;;;;;38.00;25.90;;;;;;;17.65;100.00;100678.06;105584;1254;60017;-84
2024/02/14 09:21:16;;;;;;;31.40;23.00;;;;;;;17.97;100.00;100677.23;105667;1254;60189;-84
2024/02/14 09:23:49;;;;;;;25.30;22.20;;;;;;;18.21;100.00;100671.84;105550;1253;71742;-85
2024/02/14 09:26:16;;;;;;;25.40;22.50;;;;;;;18.52;99.63;100671.65;105527;1254;63487;-84
2024/02/14 09:28:44;;;;;;;30.10;24.00;;;;;;;18.88;96.20;100669.60;105603;1258;72254;-83
2024/02/14 09:31:12;;;;;;;36.80;28.80;;;;;;;19.27;95.25;100673.98;105553;1260;59904;-86
2024/02/14 09:33:40;;;;;;;31.40;24.40;;;;;;;19.62;90.97;100669.43;105528;1260;60542;-85
2024/02/14 09:36:09;;;;;;;33.90;28.00;;;;;;;19.93;83.96;100667.48;105676;1256;72925;-83
2024/02/14 09:38:36;;;;;;;42.50;31.80;;;;;;;20.15;82.43;100663.86;105595;1254;65603;-83
2024/02/14 09:41:20;;;;;;;33.70;28.10;;;;;;;20.37;80.02;100659.67;105542;1260;74243;-85
2024/02/14 09:43:47;;;;;;;45.10;28.90;;;;;;;20.50;76.54;100659.04;105663;1254;63046;-85
2024/02/14 09:58:56;;;;;;;35.60;29.00;;;;;;;19.86;77.61;100642.23;102638;1289;600504;-84
2024/02/14 10:01:24;;;;;;;35.00;28.00;;;;;;;19.72;76.52;100644.13;105114;1266;59318;-84
2024/02/14 10:03:51;;;;;;;36.30;29.70;;;;;;;19.59;77.81;100646.26;105228;1268;60196;-85
2024/02/14 10:06:21;;;;;;;37.90;29.70;;;;;;;19.49;77.54;100644.39;105158;1265;71040;-83
2024/02/14 10:08:51;;;;;;;44.10;30.80;;;;;;;19.38;77.21;100640.53;105854;1265;61931;-82
2024/02/14 10:11:33;;;;;;;39.30;29.80;;;;;;;19.19;77.15;100642.87;105194;1270;210344;-84
2024/02/14 10:14:02;;;;;;;36.80;28.20;;;;;;;19.06;77.85;100646.79;105313;1264;60320;-83
2024/02/14 10:16:29;;;;;;;37.80;28.50;;;;;;;18.97;78.42;100644.75;105320;1265;59459;-85
2024/02/14 10:18:57;;;;;;;39.40;28.70;;;;;;;18.94;80.74;100638.92;105220;1263;71273;-85
2024/02/14 10:21:25;;;;;;;39.00;28.30;;;;;;;18.98;81.31;100634.73;105183;1265;63516;-84
2024/02/14 10:23:52;;;;;;;36.20;28.30;;;;;;;19.07;78.47;100632.30;105209;1265;73869;-84
2024/02/14 10:26:19;;;;;;;38.40;26.60;;;;;;;19.05;75.66;100632.86;105160;1276;59765;-83
2024/02/14 10:28:47;;;;;;;40.50;28.20;;;;;;;18.94;74.93;100632.02;105192;1264;61526;-83
2024/02/14 10:31:17;;;;;;;39.80;28.80;;;;;;;18.88;75.54;100629.08;105248;1265;73521;-81
2024/02/14 10:33:43;;;;;;;39.10;28.50;;;;;;;18.93;76.04;100630.48;105301;1267;64145;-85
2024/02/14 10:36:12;;;;;;;34.80;28.30;;;;;;;19.00;74.32;100626.98;105092;1263;72535;-83
2024/02/14 10:38:39;;;;;;;38.40;29.10;;;;;;;18.92;73.93;100628.86;105174;1266;59772;-84
2024/02/14 10:41:07;;;;;;;33.90;27.90;;;;;;;18.82;74.58;100627.58;105318;1262;59638;-84
2024/02/14 10:43:40;;;;;;;35.40;28.60;;;;;;;18.74;75.46;100619.54;105331;1265;72770;-84
2024/02/14 10:46:09;;;;;;;39.50;28.40;;;;;;;18.62;76.99;100617.46;105257;1263;61923;-86
2024/02/14 10:48:38;;;;;;;39.70;29.70;;;;;;;18.46;78.65;100610.57;105134;1264;73855;-85
2024/02/14 10:51:06;;;;;;;40.10;30.20;;;;;;;18.30;80.62;100605.58;105274;1265;63027;-84
2024/02/14 10:53:34;;;;;;;42.90;29.80;;;;;;;18.21;82.81;100606.02;105545;1256;62078;-83
2024/02/14 10:56:02;;;;;;;37.20;28.50;;;;;;;18.19;85.04;100605.70;105739;1257;73463;-84
2024/02/14 10:58:29;;;;;;;36.80;29.00;;;;;;;18.25;85.32;100612.18;105496;1257;64364;-85
2024/02/14 11:00:57;;;;;;;33.20;27.50;;;;;;;18.31;85.06;100617.31;105476;1261;73558;-84
2024/02/14 11:03:24;;;;;;;37.30;27.30;;;;;;;18.43;85.23;100617.60;105490;1260;59974;-85
2024/02/14 11:05:53;;;;;;;35.00;28.40;;;;;;;18.59;84.26;100620.90;105502;1262;59641;-84
2024/02/14 11:08:21;;;;;;;38.70;29.10;;;;;;;18.66;81.92;100619.95;105578;1256;72755;-85
2024/02/14 11:10:58;;;;;;;32.70;26.00;;;;;;;18.65;82.62;100623.71;105696;1260;65009;-85
2024/02/14 11:13:30;;;;;;;36.20;27.10;;;;;;;18.58;83.19;100628.23;105584;1257;70854;-84
2024/02/14 11:16:04;;;;;;;44.50;29.30;;;;;;;18.55;85.17;100633.70;105798;1257;60413;-84
2024/02/14 11:18:34;;;;;;;35.90;28.00;;;;;;;18.58;85.34;100633.39;105732;1255;61433;-84